sensor_id;sensor_type;location;lat;lon;timestamp;P1;durP1;ratioP1;P2;durP2;ratioP2
49131;SDS011;35149;51.196;6.204;2024-03-25T00:00:10;10.82;;;5.30;;
49131;SDS011;35149;51.196;6.204;2024-03-25T00:02:39;13.60;;;6.10;;
49131;SDS011;35149;51.196;6.204;2024-03-25T00:05:07;8.50;;;5.03;;
49131;SDS011;35149;51.196;6.204;2024-03-25T00:07:39;10.70;;;5.00;;
49131;SDS011;35149;51.196;6.204;2024-03-25T00:10:06;13.25;;;5.15;;
49131;SDS011;35149;51.196;6.204;2024-03-25T00:12:34;9.13;;;5.30;;
49131;SDS011;35149;51.196;6.204;2024-03-25T00:15:00;10.10;;;4.88;;
49131;SDS011;35149;51.196;6.204;2024-03-25T00:17:26;14.10;;;5.18;;
49131;SDS011;35149;51.196;6.204;2024-03-25T00:19:52;8.90;;;5.43;;
49131;SDS011;35149;51.196;6.204;2024-03-25T00:22:18;12.00;;;5.18;;
49131;SDS011;35149;51.196;6.204;2024-03-25T00:24:45;10.90;;;4.82;;
49131;SDS011;35149;51.196;6.204;2024-03-25T00:27:12;12.60;;;5.70;;
49131;SDS011;35149;51.196;6.204;2024-03-25T00:29:38;10.77;;;5.40;;
49131;SDS011;35149;51.196;6.204;2024-03-25T00:32:04;11.25;;;5.28;;
49131;SDS011;35149;51.196;6.204;2024-03-25T00:34:31;12.40;;;4.78;;
49131;SDS011;35149;51.196;6.204;2024-03-25T00:36:58;13.50;;;4.45;;
49131;SDS011;35149;51.196;6.204;2024-03-25T00:39:24;11.07;;;5.05;;
49131;SDS011;35149;51.196;6.204;2024-03-25T00:41:51;10.02;;;4.50;;
49131;SDS011;35149;51.196;6.204;2024-03-25T00:44:17;14.60;;;4.90;;
49131;SDS011;35149;51.196;6.204;2024-03-25T00:46:43;9.93;;;4.28;;
49131;SDS011;35149;51.196;6.204;2024-03-25T00:49:09;10.50;;;4.93;;
49131;SDS011;35149;51.196;6.204;2024-03-25T00:51:36;10.80;;;4.65;;
49131;SDS011;35149;51.196;6.204;2024-03-25T00:54:02;10.60;;;5.45;;
49131;SDS011;35149;51.196;6.204;2024-03-25T00:56:29;7.80;;;4.72;;
49131;SDS011;35149;51.196;6.204;2024-03-25T00:58:55;10.80;;;5.13;;
49131;SDS011;35149;51.196;6.204;2024-03-25T01:01:23;9.15;;;4.80;;
49131;SDS011;35149;51.196;6.204;2024-03-25T01:03:50;13.15;;;4.65;;
49131;SDS011;35149;51.196;6.204;2024-03-25T01:06:15;10.90;;;4.95;;
49131;SDS011;35149;51.196;6.204;2024-03-25T01:08:41;11.75;;;5.15;;
49131;SDS011;35149;51.196;6.204;2024-03-25T01:11:07;10.13;;;5.20;;
49131;SDS011;35149;51.196;6.204;2024-03-25T01:13:33;10.05;;;5.35;;
49131;SDS011;35149;51.196;6.204;2024-03-25T01:15:59;14.63;;;5.30;;
49131;SDS011;35149;51.196;6.204;2024-03-25T01:18:25;15.25;;;5.55;;
49131;SDS011;35149;51.196;6.204;2024-03-25T01:20:50;8.82;;;5.07;;
49131;SDS011;35149;51.196;6.204;2024-03-25T01:23:16;10.93;;;4.85;;
49131;SDS011;35149;51.196;6.204;2024-03-25T01:25:42;10.18;;;4.43;;
49131;SDS011;35149;51.196;6.204;2024-03-25T01:28:08;11.70;;;5.38;;
49131;SDS011;35149;51.196;6.204;2024-03-25T01:30:34;14.55;;;5.15;;
49131;SDS011;35149;51.196;6.204;2024-03-25T01:33:01;10.85;;;4.90;;
49131;SDS011;35149;51.196;6.204;2024-03-25T01:35:27;14.35;;;5.13;;
49131;SDS011;35149;51.196;6.204;2024-03-25T01:37:53;10.63;;;4.93;;
49131;SDS011;35149;51.196;6.204;2024-03-25T01:40:19;10.00;;;4.43;;
49131;SDS011;35149;51.196;6.204;2024-03-25T01:42:58;8.35;;;4.57;;
49131;SDS011;35149;51.196;6.204;2024-03-25T01:45:25;10.48;;;4.65;;
49131;SDS011;35149;51.196;6.204;2024-03-25T01:47:52;12.95;;;5.85;;
49131;SDS011;35149;51.196;6.204;2024-03-25T01:50:18;11.15;;;4.57;;
49131;SDS011;35149;51.196;6.204;2024-03-25T01:52:44;11.40;;;3.95;;
49131;SDS011;35149;51.196;6.204;2024-03-25T01:55:12;7.38;;;4.30;;
49131;SDS011;35149;51.196;6.204;2024-03-25T01:57:42;10.85;;;4.50;;
49131;SDS011;35149;51.196;6.204;2024-03-25T02:00:10;8.77;;;3.50;;
49131;SDS011;35149;51.196;6.204;2024-03-25T02:02:44;13.15;;;3.90;;
49131;SDS011;35149;51.196;6.204;2024-03-25T02:05:12;10.45;;;3.65;;
49131;SDS011;35149;51.196;6.204;2024-03-25T02:07:40;11.60;;;4.43;;
49131;SDS011;35149;51.196;6.204;2024-03-25T02:10:07;12.80;;;3.80;;
49131;SDS011;35149;51.196;6.204;2024-03-25T02:12:42;9.18;;;4.68;;
49131;SDS011;35149;51.196;6.204;2024-03-25T02:15:09;9.80;;;4.50;;
49131;SDS011;35149;51.196;6.204;2024-03-25T02:17:36;6.85;;;3.80;;
49131;SDS011;35149;51.196;6.204;2024-03-25T02:20:02;10.98;;;4.18;;
49131;SDS011;35149;51.196;6.204;2024-03-25T02:22:30;8.40;;;4.28;;
49131;SDS011;35149;51.196;6.204;2024-03-25T02:24:58;8.57;;;4.30;;
49131;SDS011;35149;51.196;6.204;2024-03-25T02:27:26;12.60;;;4.07;;
49131;SDS011;35149;51.196;6.204;2024-03-25T02:30:00;14.25;;;4.57;;
49131;SDS011;35149;51.196;6.204;2024-03-25T02:32:27;10.52;;;4.82;;
49131;SDS011;35149;51.196;6.204;2024-03-25T02:34:55;7.38;;;4.30;;
49131;SDS011;35149;51.196;6.204;2024-03-25T02:37:22;13.10;;;4.40;;
49131;SDS011;35149;51.196;6.204;2024-03-25T02:39:48;8.50;;;3.33;;
49131;SDS011;35149;51.196;6.204;2024-03-25T02:42:14;8.38;;;4.43;;
49131;SDS011;35149;51.196;6.204;2024-03-25T02:44:40;9.32;;;4.10;;
49131;SDS011;35149;51.196;6.204;2024-03-25T02:47:08;10.57;;;5.15;;
49131;SDS011;35149;51.196;6.204;2024-03-25T02:49:35;13.13;;;5.28;;
49131;SDS011;35149;51.196;6.204;2024-03-25T02:52:01;14.30;;;5.07;;
49131;SDS011;35149;51.196;6.204;2024-03-25T02:54:26;12.55;;;4.93;;
49131;SDS011;35149;51.196;6.204;2024-03-25T02:56:52;11.73;;;5.00;;
49131;SDS011;35149;51.196;6.204;2024-03-25T02:59:18;11.90;;;4.65;;
49131;SDS011;35149;51.196;6.204;2024-03-25T03:01:44;8.07;;;5.00;;
49131;SDS011;35149;51.196;6.204;2024-03-25T03:04:10;10.65;;;5.32;;
49131;SDS011;35149;51.196;6.204;2024-03-25T03:06:35;13.18;;;5.00;;
49131;SDS011;35149;51.196;6.204;2024-03-25T03:09:01;12.48;;;5.00;;
49131;SDS011;35149;51.196;6.204;2024-03-25T03:11:27;8.48;;;4.45;;
49131;SDS011;35149;51.196;6.204;2024-03-25T03:13:53;7.50;;;4.47;;
49131;SDS011;35149;51.196;6.204;2024-03-25T03:16:19;12.50;;;5.43;;
49131;SDS011;35149;51.196;6.204;2024-03-25T03:18:44;7.75;;;4.68;;
49131;SDS011;35149;51.196;6.204;2024-03-25T03:21:10;10.13;;;4.93;;
49131;SDS011;35149;51.196;6.204;2024-03-25T03:23:36;9.77;;;4.40;;
49131;SDS011;35149;51.196;6.204;2024-03-25T03:26:02;10.65;;;4.78;;
49131;SDS011;35149;51.196;6.204;2024-03-25T03:28:28;10.95;;;5.15;;
49131;SDS011;35149;51.196;6.204;2024-03-25T03:30:54;17.67;;;5.28;;
49131;SDS011;35149;51.196;6.204;2024-03-25T03:33:19;10.35;;;4.63;;
49131;SDS011;35149;51.196;6.204;2024-03-25T03:35:46;7.60;;;4.43;;
49131;SDS011;35149;51.196;6.204;2024-03-25T03:38:12;8.80;;;5.20;;
49131;SDS011;35149;51.196;6.204;2024-03-25T03:40:38;12.95;;;5.50;;
49131;SDS011;35149;51.196;6.204;2024-03-25T03:43:04;11.05;;;4.45;;
49131;SDS011;35149;51.196;6.204;2024-03-25T03:45:32;13.50;;;5.35;;
49131;SDS011;35149;51.196;6.204;2024-03-25T03:48:00;9.45;;;4.38;;
49131;SDS011;35149;51.196;6.204;2024-03-25T03:50:26;13.13;;;5.50;;
49131;SDS011;35149;51.196;6.204;2024-03-25T03:52:52;10.02;;;4.47;;
49131;SDS011;35149;51.196;6.204;2024-03-25T03:55:17;10.98;;;4.45;;
49131;SDS011;35149;51.196;6.204;2024-03-25T03:57:44;11.48;;;5.00;;
49131;SDS011;35149;51.196;6.204;2024-03-25T04:00:10;14.95;;;5.55;;
49131;SDS011;35149;51.196;6.204;2024-03-25T04:02:39;11.05;;;5.15;;
49131;SDS011;35149;51.196;6.204;2024-03-25T04:05:05;13.02;;;4.57;;
49131;SDS011;35149;51.196;6.204;2024-03-25T04:07:32;10.02;;;5.15;;
49131;SDS011;35149;51.196;6.204;2024-03-25T04:09:58;12.50;;;5.15;;
49131;SDS011;35149;51.196;6.204;2024-03-25T04:12:25;6.78;;;4.65;;
49131;SDS011;35149;51.196;6.204;2024-03-25T04:14:51;9.98;;;4.82;;
49131;SDS011;35149;51.196;6.204;2024-03-25T04:17:20;10.23;;;5.47;;
49131;SDS011;35149;51.196;6.204;2024-03-25T04:19:47;16.25;;;7.20;;
49131;SDS011;35149;51.196;6.204;2024-03-25T04:22:14;13.05;;;6.40;;
49131;SDS011;35149;51.196;6.204;2024-03-25T04:24:40;12.00;;;6.70;;
49131;SDS011;35149;51.196;6.204;2024-03-25T04:27:06;14.15;;;8.05;;
49131;SDS011;35149;51.196;6.204;2024-03-25T04:29:32;10.90;;;6.53;;
49131;SDS011;35149;51.196;6.204;2024-03-25T04:31:58;17.92;;;7.53;;
49131;SDS011;35149;51.196;6.204;2024-03-25T04:34:23;14.35;;;6.15;;
49131;SDS011;35149;51.196;6.204;2024-03-25T04:36:49;19.10;;;7.60;;
49131;SDS011;35149;51.196;6.204;2024-03-25T04:39:15;12.55;;;6.68;;
49131;SDS011;35149;51.196;6.204;2024-03-25T04:41:41;11.38;;;7.07;;
49131;SDS011;35149;51.196;6.204;2024-03-25T04:44:07;15.90;;;7.13;;
49131;SDS011;35149;51.196;6.204;2024-03-25T04:46:33;12.45;;;6.72;;
49131;SDS011;35149;51.196;6.204;2024-03-25T04:48:59;14.18;;;7.38;;
49131;SDS011;35149;51.196;6.204;2024-03-25T04:51:25;16.83;;;7.65;;
49131;SDS011;35149;51.196;6.204;2024-03-25T04:53:50;15.95;;;8.70;;
49131;SDS011;35149;51.196;6.204;2024-03-25T04:56:16;11.05;;;7.22;;
49131;SDS011;35149;51.196;6.204;2024-03-25T04:58:42;14.45;;;6.45;;
49131;SDS011;35149;51.196;6.204;2024-03-25T05:01:08;15.70;;;7.18;;
49131;SDS011;35149;51.196;6.204;2024-03-25T05:03:34;10.77;;;6.07;;
49131;SDS011;35149;51.196;6.204;2024-03-25T05:06:00;11.32;;;6.30;;
49131;SDS011;35149;51.196;6.204;2024-03-25T05:08:26;11.35;;;6.05;;
49131;SDS011;35149;51.196;6.204;2024-03-25T05:10:51;14.80;;;6.45;;
49131;SDS011;35149;51.196;6.204;2024-03-25T05:13:17;14.40;;;6.13;;
49131;SDS011;35149;51.196;6.204;2024-03-25T05:15:52;14.55;;;6.63;;
49131;SDS011;35149;51.196;6.204;2024-03-25T05:18:18;10.15;;;5.65;;
49131;SDS011;35149;51.196;6.204;2024-03-25T05:20:44;9.13;;;5.25;;
49131;SDS011;35149;51.196;6.204;2024-03-25T05:23:10;8.35;;;5.60;;
49131;SDS011;35149;51.196;6.204;2024-03-25T05:25:36;11.27;;;4.80;;
49131;SDS011;35149;51.196;6.204;2024-03-25T05:28:04;7.38;;;5.13;;
49131;SDS011;35149;51.196;6.204;2024-03-25T05:30:30;7.97;;;5.20;;
49131;SDS011;35149;51.196;6.204;2024-03-25T05:32:56;10.90;;;5.45;;
49131;SDS011;35149;51.196;6.204;2024-03-25T05:35:21;13.93;;;5.28;;
49131;SDS011;35149;51.196;6.204;2024-03-25T05:37:47;10.07;;;4.95;;
49131;SDS011;35149;51.196;6.204;2024-03-25T05:40:13;11.23;;;5.40;;
49131;SDS011;35149;51.196;6.204;2024-03-25T05:42:40;7.97;;;4.75;;
49131;SDS011;35149;51.196;6.204;2024-03-25T05:45:09;8.13;;;5.18;;
49131;SDS011;35149;51.196;6.204;2024-03-25T05:47:35;10.85;;;5.75;;
49131;SDS011;35149;51.196;6.204;2024-03-25T05:50:01;14.02;;;5.85;;
49131;SDS011;35149;51.196;6.204;2024-03-25T05:52:30;9.32;;;5.78;;
49131;SDS011;35149;51.196;6.204;2024-03-25T05:54:56;14.77;;;6.20;;
49131;SDS011;35149;51.196;6.204;2024-03-25T05:57:23;15.77;;;7.22;;
49131;SDS011;35149;51.196;6.204;2024-03-25T05:59:49;11.88;;;6.85;;
49131;SDS011;35149;51.196;6.204;2024-03-25T06:02:14;10.48;;;6.22;;
49131;SDS011;35149;51.196;6.204;2024-03-25T06:04:41;12.10;;;6.68;;
49131;SDS011;35149;51.196;6.204;2024-03-25T06:07:06;13.15;;;7.50;;
49131;SDS011;35149;51.196;6.204;2024-03-25T06:09:32;13.68;;;7.72;;
49131;SDS011;35149;51.196;6.204;2024-03-25T06:11:58;16.95;;;8.65;;
49131;SDS011;35149;51.196;6.204;2024-03-25T06:14:24;15.57;;;8.30;;
49131;SDS011;35149;51.196;6.204;2024-03-25T06:16:50;12.73;;;8.43;;
49131;SDS011;35149;51.196;6.204;2024-03-25T06:19:15;14.90;;;9.45;;
49131;SDS011;35149;51.196;6.204;2024-03-25T06:21:41;15.32;;;8.55;;
49131;SDS011;35149;51.196;6.204;2024-03-25T06:24:08;11.95;;;8.18;;
49131;SDS011;35149;51.196;6.204;2024-03-25T06:26:34;9.35;;;6.93;;
49131;SDS011;35149;51.196;6.204;2024-03-25T06:29:01;9.75;;;6.90;;
49131;SDS011;35149;51.196;6.204;2024-03-25T06:31:28;15.10;;;7.38;;
49131;SDS011;35149;51.196;6.204;2024-03-25T06:34:12;11.85;;;7.63;;
49131;SDS011;35149;51.196;6.204;2024-03-25T06:36:43;15.52;;;8.20;;
49131;SDS011;35149;51.196;6.204;2024-03-25T06:39:10;15.25;;;7.68;;
49131;SDS011;35149;51.196;6.204;2024-03-25T06:41:36;12.63;;;7.57;;
49131;SDS011;35149;51.196;6.204;2024-03-25T06:44:02;11.85;;;7.43;;
49131;SDS011;35149;51.196;6.204;2024-03-25T06:46:28;11.35;;;6.78;;
49131;SDS011;35149;51.196;6.204;2024-03-25T06:48:54;9.32;;;6.82;;
49131;SDS011;35149;51.196;6.204;2024-03-25T06:51:20;11.52;;;6.53;;
49131;SDS011;35149;51.196;6.204;2024-03-25T06:53:46;12.57;;;6.68;;
49131;SDS011;35149;51.196;6.204;2024-03-25T06:56:12;10.15;;;7.15;;
49131;SDS011;35149;51.196;6.204;2024-03-25T06:58:38;12.93;;;7.32;;
49131;SDS011;35149;51.196;6.204;2024-03-25T07:01:05;11.35;;;7.30;;
49131;SDS011;35149;51.196;6.204;2024-03-25T07:03:37;10.32;;;7.43;;
49131;SDS011;35149;51.196;6.204;2024-03-25T07:06:04;10.75;;;7.32;;
49131;SDS011;35149;51.196;6.204;2024-03-25T07:08:30;14.70;;;7.38;;
49131;SDS011;35149;51.196;6.204;2024-03-25T07:10:56;13.38;;;8.10;;
49131;SDS011;35149;51.196;6.204;2024-03-25T07:13:23;14.93;;;7.97;;
49131;SDS011;35149;51.196;6.204;2024-03-25T07:15:51;15.13;;;8.27;;
49131;SDS011;35149;51.196;6.204;2024-03-25T07:18:16;16.70;;;9.55;;
49131;SDS011;35149;51.196;6.204;2024-03-25T07:20:43;14.80;;;8.48;;
49131;SDS011;35149;51.196;6.204;2024-03-25T07:23:09;18.13;;;9.43;;
49131;SDS011;35149;51.196;6.204;2024-03-25T07:25:35;18.20;;;10.25;;
49131;SDS011;35149;51.196;6.204;2024-03-25T07:28:02;18.55;;;10.88;;
49131;SDS011;35149;51.196;6.204;2024-03-25T07:30:28;25.42;;;11.32;;
49131;SDS011;35149;51.196;6.204;2024-03-25T07:32:57;18.02;;;11.80;;
49131;SDS011;35149;51.196;6.204;2024-03-25T07:35:25;27.85;;;13.30;;
49131;SDS011;35149;51.196;6.204;2024-03-25T07:37:51;24.05;;;12.85;;
49131;SDS011;35149;51.196;6.204;2024-03-25T07:40:18;25.85;;;14.48;;
49131;SDS011;35149;51.196;6.204;2024-03-25T07:42:44;23.42;;;14.00;;
49131;SDS011;35149;51.196;6.204;2024-03-25T07:45:10;24.77;;;14.63;;
49131;SDS011;35149;51.196;6.204;2024-03-25T07:47:36;31.73;;;15.20;;
49131;SDS011;35149;51.196;6.204;2024-03-25T07:50:02;31.75;;;15.25;;
49131;SDS011;35149;51.196;6.204;2024-03-25T07:52:28;27.98;;;14.27;;
49131;SDS011;35149;51.196;6.204;2024-03-25T07:54:54;33.95;;;15.82;;
49131;SDS011;35149;51.196;6.204;2024-03-25T07:57:20;24.33;;;14.80;;
49131;SDS011;35149;51.196;6.204;2024-03-25T07:59:46;27.00;;;14.05;;
49131;SDS011;35149;51.196;6.204;2024-03-25T08:02:12;23.73;;;15.13;;
49131;SDS011;35149;51.196;6.204;2024-03-25T08:04:38;27.65;;;14.73;;
49131;SDS011;35149;51.196;6.204;2024-03-25T08:07:04;25.00;;;15.07;;
49131;SDS011;35149;51.196;6.204;2024-03-25T08:09:31;28.55;;;14.88;;
49131;SDS011;35149;51.196;6.204;2024-03-25T08:11:56;29.15;;;14.30;;
49131;SDS011;35149;51.196;6.204;2024-03-25T08:14:22;26.55;;;14.18;;
49131;SDS011;35149;51.196;6.204;2024-03-25T08:16:48;28.42;;;15.88;;
49131;SDS011;35149;51.196;6.204;2024-03-25T08:19:14;32.97;;;16.02;;
49131;SDS011;35149;51.196;6.204;2024-03-25T08:21:40;26.02;;;14.18;;
49131;SDS011;35149;51.196;6.204;2024-03-25T08:24:06;28.55;;;14.63;;
49131;SDS011;35149;51.196;6.204;2024-03-25T08:26:32;28.08;;;15.27;;
49131;SDS011;35149;51.196;6.204;2024-03-25T08:28:58;24.63;;;14.55;;
49131;SDS011;35149;51.196;6.204;2024-03-25T08:31:24;23.90;;;15.20;;
49131;SDS011;35149;51.196;6.204;2024-03-25T08:33:50;26.90;;;14.55;;
49131;SDS011;35149;51.196;6.204;2024-03-25T08:36:16;22.98;;;13.57;;
49131;SDS011;35149;51.196;6.204;2024-03-25T08:38:43;29.77;;;15.60;;
49131;SDS011;35149;51.196;6.204;2024-03-25T08:41:09;25.55;;;14.07;;
49131;SDS011;35149;51.196;6.204;2024-03-25T08:43:35;26.73;;;13.30;;
49131;SDS011;35149;51.196;6.204;2024-03-25T08:46:01;30.38;;;14.68;;
49131;SDS011;35149;51.196;6.204;2024-03-25T08:48:28;26.63;;;14.63;;
49131;SDS011;35149;51.196;6.204;2024-03-25T08:50:55;22.17;;;13.77;;
49131;SDS011;35149;51.196;6.204;2024-03-25T08:53:20;29.30;;;14.80;;
49131;SDS011;35149;51.196;6.204;2024-03-25T08:55:47;24.60;;;13.40;;
49131;SDS011;35149;51.196;6.204;2024-03-25T08:58:14;27.67;;;13.60;;
49131;SDS011;35149;51.196;6.204;2024-03-25T09:00:41;20.00;;;12.88;;
49131;SDS011;35149;51.196;6.204;2024-03-25T09:03:07;19.65;;;12.02;;
49131;SDS011;35149;51.196;6.204;2024-03-25T09:05:34;22.83;;;12.05;;
49131;SDS011;35149;51.196;6.204;2024-03-25T09:08:00;19.58;;;11.60;;
49131;SDS011;35149;51.196;6.204;2024-03-25T09:10:26;19.23;;;11.15;;
49131;SDS011;35149;51.196;6.204;2024-03-25T09:13:12;16.58;;;11.15;;
49131;SDS011;35149;51.196;6.204;2024-03-25T09:15:38;19.77;;;10.90;;
49131;SDS011;35149;51.196;6.204;2024-03-25T09:18:04;19.85;;;11.32;;
49131;SDS011;35149;51.196;6.204;2024-03-25T09:20:30;18.52;;;10.13;;
49131;SDS011;35149;51.196;6.204;2024-03-25T09:22:55;16.15;;;10.40;;
49131;SDS011;35149;51.196;6.204;2024-03-25T09:25:22;17.73;;;11.18;;
49131;SDS011;35149;51.196;6.204;2024-03-25T09:27:49;18.92;;;10.27;;
49131;SDS011;35149;51.196;6.204;2024-03-25T09:30:15;17.60;;;10.73;;
49131;SDS011;35149;51.196;6.204;2024-03-25T09:32:43;14.18;;;10.20;;
49131;SDS011;35149;51.196;6.204;2024-03-25T09:35:09;18.17;;;9.63;;
49131;SDS011;35149;51.196;6.204;2024-03-25T09:37:35;16.35;;;9.18;;
49131;SDS011;35149;51.196;6.204;2024-03-25T09:40:02;17.23;;;9.10;;
49131;SDS011;35149;51.196;6.204;2024-03-25T09:42:41;12.95;;;9.48;;
49131;SDS011;35149;51.196;6.204;2024-03-25T09:45:12;14.98;;;8.27;;
49131;SDS011;35149;51.196;6.204;2024-03-25T09:47:41;17.75;;;8.63;;
49131;SDS011;35149;51.196;6.204;2024-03-25T09:50:12;13.57;;;8.88;;
49131;SDS011;35149;51.196;6.204;2024-03-25T09:52:50;12.48;;;8.40;;
49131;SDS011;35149;51.196;6.204;2024-03-25T09:55:16;14.10;;;8.93;;
49131;SDS011;35149;51.196;6.204;2024-03-25T09:57:43;15.82;;;8.48;;
49131;SDS011;35149;51.196;6.204;2024-03-25T10:00:10;15.35;;;8.63;;
49131;SDS011;35149;51.196;6.204;2024-03-25T10:02:41;16.50;;;9.27;;
49131;SDS011;35149;51.196;6.204;2024-03-25T10:05:07;13.05;;;7.95;;
49131;SDS011;35149;51.196;6.204;2024-03-25T10:07:34;13.13;;;7.43;;
49131;SDS011;35149;51.196;6.204;2024-03-25T10:10:06;13.48;;;7.72;;
49131;SDS011;35149;51.196;6.204;2024-03-25T10:12:35;11.25;;;7.25;;
49131;SDS011;35149;51.196;6.204;2024-03-25T10:15:01;15.57;;;7.25;;
49131;SDS011;35149;51.196;6.204;2024-03-25T10:17:30;11.35;;;7.30;;
49131;SDS011;35149;51.196;6.204;2024-03-25T10:19:59;10.77;;;6.25;;
49131;SDS011;35149;51.196;6.204;2024-03-25T10:22:25;13.13;;;6.57;;
49131;SDS011;35149;51.196;6.204;2024-03-25T10:24:50;12.55;;;5.97;;
49131;SDS011;35149;51.196;6.204;2024-03-25T10:27:17;12.27;;;6.35;;
49131;SDS011;35149;51.196;6.204;2024-03-25T10:29:45;10.70;;;6.38;;
49131;SDS011;35149;51.196;6.204;2024-03-25T10:32:20;11.48;;;5.53;;
49131;SDS011;35149;51.196;6.204;2024-03-25T10:34:50;11.57;;;6.70;;
49131;SDS011;35149;51.196;6.204;2024-03-25T10:37:16;10.93;;;6.78;;
49131;SDS011;35149;51.196;6.204;2024-03-25T10:39:48;9.80;;;6.18;;
49131;SDS011;35149;51.196;6.204;2024-03-25T10:42:19;12.13;;;6.00;;
49131;SDS011;35149;51.196;6.204;2024-03-25T10:44:49;12.32;;;6.75;;
49131;SDS011;35149;51.196;6.204;2024-03-25T10:47:25;7.60;;;5.00;;
49131;SDS011;35149;51.196;6.204;2024-03-25T10:49:57;11.63;;;6.38;;
49131;SDS011;35149;51.196;6.204;2024-03-25T10:52:24;11.05;;;6.05;;
49131;SDS011;35149;51.196;6.204;2024-03-25T10:54:52;11.85;;;6.03;;
49131;SDS011;35149;51.196;6.204;2024-03-25T10:57:20;9.63;;;5.95;;
49131;SDS011;35149;51.196;6.204;2024-03-25T10:59:46;8.70;;;5.18;;
49131;SDS011;35149;51.196;6.204;2024-03-25T11:02:14;10.88;;;5.10;;
49131;SDS011;35149;51.196;6.204;2024-03-25T11:04:41;7.38;;;5.20;;
49131;SDS011;35149;51.196;6.204;2024-03-25T11:07:13;7.85;;;5.32;;
49131;SDS011;35149;51.196;6.204;2024-03-25T11:09:40;5.93;;;4.32;;
49131;SDS011;35149;51.196;6.204;2024-03-25T11:12:07;7.82;;;4.65;;
49131;SDS011;35149;51.196;6.204;2024-03-25T11:14:36;5.20;;;4.10;;
49131;SDS011;35149;51.196;6.204;2024-03-25T11:17:02;6.25;;;3.88;;
49131;SDS011;35149;51.196;6.204;2024-03-25T11:19:28;5.70;;;3.33;;
49131;SDS011;35149;51.196;6.204;2024-03-25T11:22:06;6.72;;;3.70;;
49131;SDS011;35149;51.196;6.204;2024-03-25T11:24:34;5.32;;;3.80;;
49131;SDS011;35149;51.196;6.204;2024-03-25T11:27:02;3.63;;;2.92;;
49131;SDS011;35149;51.196;6.204;2024-03-25T11:29:28;4.68;;;3.05;;
49131;SDS011;35149;51.196;6.204;2024-03-25T11:31:55;6.72;;;2.67;;
49131;SDS011;35149;51.196;6.204;2024-03-25T11:34:24;4.18;;;3.03;;
49131;SDS011;35149;51.196;6.204;2024-03-25T11:36:49;5.20;;;3.08;;
49131;SDS011;35149;51.196;6.204;2024-03-25T11:39:17;9.60;;;3.80;;
49131;SDS011;35149;51.196;6.204;2024-03-25T11:41:43;7.25;;;3.40;;
49131;SDS011;35149;51.196;6.204;2024-03-25T11:44:10;3.83;;;3.10;;
49131;SDS011;35149;51.196;6.204;2024-03-25T11:46:40;4.35;;;2.83;;
49131;SDS011;35149;51.196;6.204;2024-03-25T11:49:06;4.47;;;3.15;;
49131;SDS011;35149;51.196;6.204;2024-03-25T11:51:35;3.63;;;2.88;;
49131;SDS011;35149;51.196;6.204;2024-03-25T11:54:04;5.40;;;2.85;;
49131;SDS011;35149;51.196;6.204;2024-03-25T11:56:31;5.05;;;2.95;;
49131;SDS011;35149;51.196;6.204;2024-03-25T11:59:01;5.60;;;3.40;;
49131;SDS011;35149;51.196;6.204;2024-03-25T12:01:28;3.05;;;2.28;;
49131;SDS011;35149;51.196;6.204;2024-03-25T12:03:54;4.18;;;2.78;;
49131;SDS011;35149;51.196;6.204;2024-03-25T12:06:20;5.10;;;2.55;;
49131;SDS011;35149;51.196;6.204;2024-03-25T12:08:46;5.07;;;2.30;;
49131;SDS011;35149;51.196;6.204;2024-03-25T12:11:31;4.28;;;2.67;;
49131;SDS011;35149;51.196;6.204;2024-03-25T12:13:57;3.28;;;2.30;;
49131;SDS011;35149;51.196;6.204;2024-03-25T12:16:24;3.10;;;2.25;;
49131;SDS011;35149;51.196;6.204;2024-03-25T12:18:50;4.43;;;2.70;;
49131;SDS011;35149;51.196;6.204;2024-03-25T12:21:17;7.32;;;3.65;;
49131;SDS011;35149;51.196;6.204;2024-03-25T12:23:43;4.35;;;2.40;;
49131;SDS011;35149;51.196;6.204;2024-03-25T12:26:09;3.58;;;2.80;;
49131;SDS011;35149;51.196;6.204;2024-03-25T12:28:36;3.97;;;2.60;;
49131;SDS011;35149;51.196;6.204;2024-03-25T12:31:06;6.43;;;2.95;;
49131;SDS011;35149;51.196;6.204;2024-03-25T12:33:43;5.03;;;2.50;;
49131;SDS011;35149;51.196;6.204;2024-03-25T12:36:11;6.38;;;2.88;;
49131;SDS011;35149;51.196;6.204;2024-03-25T12:38:38;7.38;;;3.10;;
49131;SDS011;35149;51.196;6.204;2024-03-25T12:41:07;4.53;;;2.92;;
49131;SDS011;35149;51.196;6.204;2024-03-25T12:43:34;3.78;;;2.70;;
49131;SDS011;35149;51.196;6.204;2024-03-25T12:46:01;5.50;;;2.90;;
49131;SDS011;35149;51.196;6.204;2024-03-25T12:48:29;5.50;;;2.70;;
49131;SDS011;35149;51.196;6.204;2024-03-25T12:50:55;4.82;;;2.72;;
49131;SDS011;35149;51.196;6.204;2024-03-25T12:53:21;3.85;;;3.03;;
49131;SDS011;35149;51.196;6.204;2024-03-25T12:55:47;4.75;;;2.67;;
49131;SDS011;35149;51.196;6.204;2024-03-25T12:58:13;4.78;;;2.80;;
49131;SDS011;35149;51.196;6.204;2024-03-25T13:00:40;4.78;;;2.30;;
49131;SDS011;35149;51.196;6.204;2024-03-25T13:03:09;3.03;;;2.38;;
49131;SDS011;35149;51.196;6.204;2024-03-25T13:05:36;4.03;;;2.08;;
49131;SDS011;35149;51.196;6.204;2024-03-25T13:08:02;4.80;;;2.65;;
49131;SDS011;35149;51.196;6.204;2024-03-25T13:10:29;5.35;;;2.20;;
49131;SDS011;35149;51.196;6.204;2024-03-25T13:12:55;6.05;;;2.72;;
49131;SDS011;35149;51.196;6.204;2024-03-25T13:15:21;5.80;;;3.17;;
49131;SDS011;35149;51.196;6.204;2024-03-25T13:17:47;2.97;;;2.10;;
49131;SDS011;35149;51.196;6.204;2024-03-25T13:20:13;5.10;;;2.95;;
49131;SDS011;35149;51.196;6.204;2024-03-25T13:22:40;3.13;;;2.10;;
49131;SDS011;35149;51.196;6.204;2024-03-25T13:25:06;5.63;;;2.60;;
49131;SDS011;35149;51.196;6.204;2024-03-25T13:27:32;5.85;;;2.42;;
49131;SDS011;35149;51.196;6.204;2024-03-25T13:29:58;3.28;;;1.77;;
49131;SDS011;35149;51.196;6.204;2024-03-25T13:32:24;3.97;;;2.00;;
49131;SDS011;35149;51.196;6.204;2024-03-25T13:34:50;3.22;;;1.98;;
49131;SDS011;35149;51.196;6.204;2024-03-25T13:37:16;3.17;;;2.63;;
49131;SDS011;35149;51.196;6.204;2024-03-25T13:39:42;3.88;;;1.80;;
49131;SDS011;35149;51.196;6.204;2024-03-25T13:42:08;3.95;;;2.10;;
49131;SDS011;35149;51.196;6.204;2024-03-25T13:44:34;4.55;;;2.10;;
49131;SDS011;35149;51.196;6.204;2024-03-25T13:47:00;3.95;;;1.75;;
49131;SDS011;35149;51.196;6.204;2024-03-25T13:49:25;3.78;;;1.73;;
49131;SDS011;35149;51.196;6.204;2024-03-25T13:51:55;3.38;;;1.60;;
49131;SDS011;35149;51.196;6.204;2024-03-25T13:56:51;3.13;;;1.63;;
49131;SDS011;35149;51.196;6.204;2024-03-25T13:59:16;9.98;;;3.17;;
49131;SDS011;35149;51.196;6.204;2024-03-25T14:01:42;2.25;;;1.35;;
49131;SDS011;35149;51.196;6.204;2024-03-25T14:04:08;2.22;;;1.20;;
49131;SDS011;35149;51.196;6.204;2024-03-25T14:06:34;2.63;;;1.38;;
49131;SDS011;35149;51.196;6.204;2024-03-25T14:09:02;2.15;;;1.20;;
49131;SDS011;35149;51.196;6.204;2024-03-25T14:11:31;2.90;;;1.35;;
49131;SDS011;35149;51.196;6.204;2024-03-25T14:13:57;1.88;;;1.23;;
49131;SDS011;35149;51.196;6.204;2024-03-25T14:16:23;2.70;;;1.60;;
49131;SDS011;35149;51.196;6.204;2024-03-25T14:18:49;2.88;;;1.55;;
49131;SDS011;35149;51.196;6.204;2024-03-25T14:21:14;1.88;;;1.38;;
49131;SDS011;35149;51.196;6.204;2024-03-25T14:23:40;2.15;;;1.50;;
49131;SDS011;35149;51.196;6.204;2024-03-25T14:26:11;2.65;;;1.45;;
49131;SDS011;35149;51.196;6.204;2024-03-25T14:28:39;4.30;;;1.50;;
49131;SDS011;35149;51.196;6.204;2024-03-25T14:31:06;1.75;;;1.50;;
49131;SDS011;35149;51.196;6.204;2024-03-25T14:33:32;2.78;;;1.58;;
49131;SDS011;35149;51.196;6.204;2024-03-25T14:35:58;4.63;;;1.77;;
49131;SDS011;35149;51.196;6.204;2024-03-25T14:38:23;4.90;;;1.83;;